createdAt,value
2017-10-15T00:02:08.708Z,101627.78
2017-10-15T00:04:42.172Z,101623.30
2017-10-15T00:07:14.498Z,101624.31
2017-10-15T00:09:49.004Z,101623.25
2017-10-15T00:12:21.505Z,101623.08
2017-10-15T00:14:53.980Z,101617.47
2017-10-15T00:17:25.908Z,101619.80
2017-10-15T00:19:58.137Z,101618.94
2017-10-15T00:22:30.200Z,101621.27
2017-10-15T00:25:03.094Z,101615.98
2017-10-15T00:27:35.897Z,101621.91
2017-10-15T00:30:10.959Z,101615.03
2017-10-15T00:32:45.512Z,101613.73
2017-10-15T00:35:17.503Z,101608.88
2017-10-15T00:37:49.986Z,101611.09
2017-10-15T00:40:22.329Z,101615.63
2017-10-15T00:42:54.490Z,101613.70
2017-10-15T00:45:26.658Z,101615.69
2017-10-15T00:47:59.210Z,101613.24
2017-10-15T00:50:31.387Z,101609.87
2017-10-15T00:53:19.204Z,101606.95
2017-10-15T00:55:53.904Z,101609.41
2017-10-15T00:58:26.192Z,101605.55
2017-10-15T01:00:58.361Z,101598.28
2017-10-15T01:03:30.972Z,101593.19
2017-10-15T01:06:04.400Z,101588.61
2017-10-15T01:08:37.313Z,101593.20
2017-10-15T01:11:09.393Z,101593.23
2017-10-15T01:13:43.918Z,101590.27
2017-10-15T01:16:16.390Z,101587.79
2017-10-15T01:18:49.378Z,101582.20
2017-10-15T01:21:21.857Z,101578.03
2017-10-15T01:23:53.980Z,101573.91
2017-10-15T01:26:27.237Z,101575.45
2017-10-15T01:28:59.547Z,101576.53
2017-10-15T01:31:31.672Z,101569.94
2017-10-15T01:34:05.862Z,101570.98
2017-10-15T01:36:38.401Z,101563.41
2017-10-15T01:39:11.879Z,101562.72
2017-10-15T01:41:45.595Z,101555.09
2017-10-15T01:44:17.862Z,101554.01
2017-10-15T01:46:51.411Z,101552.96
2017-10-15T01:49:23.512Z,101553.77
2017-10-15T01:51:55.761Z,101560.23
2017-10-15T01:54:28.107Z,101551.22
2017-10-15T01:57:00.275Z,101551.25
2017-10-15T01:59:32.736Z,101550.88
2017-10-15T02:02:06.330Z,101551.08
2017-10-15T02:04:38.362Z,101543.70
2017-10-15T02:07:10.608Z,101538.06
2017-10-15T02:09:43.770Z,101541.33
2017-10-15T02:12:16.149Z,101537.90
2017-10-15T02:14:48.892Z,101540.23
2017-10-15T02:17:20.919Z,101535.39
2017-10-15T02:19:53.317Z,101533.61
2017-10-15T02:22:25.301Z,101530.64
2017-10-15T02:24:57.540Z,101531.61
2017-10-15T02:27:29.500Z,101533.92
2017-10-15T02:30:02.897Z,101531.13
2017-10-15T02:32:35.143Z,101529.56
2017-10-15T02:35:08.040Z,101529.73
2017-10-15T02:37:40.477Z,101534.11
2017-10-15T02:40:13.280Z,101528.85
2017-10-15T02:42:45.612Z,101529.77
2017-10-15T02:45:17.848Z,101534.25
2017-10-15T02:47:49.873Z,101527.81
2017-10-15T02:50:22.428Z,101529.75
2017-10-15T02:52:54.781Z,101526.27
2017-10-15T02:55:26.800Z,101526.95
2017-10-15T02:57:59.547Z,101531.06
2017-10-15T03:00:31.686Z,101533.42
2017-10-15T03:03:04.497Z,101534.94
2017-10-15T03:06:39.535Z,101539.41
2017-10-15T03:09:12.494Z,101539.83
2017-10-15T03:11:46.196Z,101542.91
2017-10-15T03:14:18.375Z,101543.71
2017-10-15T03:16:50.637Z,101534.03
2017-10-15T03:19:23.910Z,101535.82
2017-10-15T03:21:55.941Z,101544.72
2017-10-15T03:24:28.022Z,101541.25
2017-10-15T03:27:00.594Z,101551.36
2017-10-15T03:29:32.992Z,101545.76
2017-10-15T03:32:09.531Z,101556.41
2017-10-15T03:34:45.455Z,101551.99
2017-10-15T03:37:17.516Z,101559.47
2017-10-15T03:39:52.010Z,101557.70
2017-10-15T03:42:24.127Z,101564.31
2017-10-15T03:44:56.417Z,101559.98
2017-10-15T03:47:28.422Z,101561.44
2017-10-15T03:50:00.704Z,101562.91
2017-10-15T03:52:33.092Z,101564.32
2017-10-15T03:55:05.415Z,101568.80
2017-10-15T03:57:38.515Z,101570.48
2017-10-15T04:00:10.796Z,101574.44
2017-10-15T04:02:45.278Z,101574.87
2017-10-15T04:05:17.551Z,101572.25
2017-10-15T04:07:49.631Z,101573.53
2017-10-15T04:10:21.662Z,101576.72
2017-10-15T04:12:54.507Z,101571.53
2017-10-15T04:15:26.645Z,101575.49
2017-10-15T04:18:01.392Z,101575.13
2017-10-15T04:20:35.111Z,101573.89
2017-10-15T04:23:08.578Z,101578.75
2017-10-15T04:25:43.396Z,101578.83
2017-10-15T04:28:20.831Z,101584.62
2017-10-15T04:30:53.556Z,101580.35
2017-10-15T04:33:25.792Z,101585.72
2017-10-15T04:36:00.517Z,101580.06
2017-10-15T04:38:32.832Z,101580.59
2017-10-15T04:41:05.440Z,101573.69
2017-10-15T04:43:38.444Z,101578.22
2017-10-15T04:46:10.932Z,101586.29
2017-10-15T04:48:51.192Z,101582.43
2017-10-15T04:51:23.765Z,101582.16
2017-10-15T04:53:56.227Z,101585.80
2017-10-15T04:56:28.385Z,101585.94
2017-10-15T04:59:00.450Z,101589.47
2017-10-15T05:01:32.761Z,101585.55
2017-10-15T05:04:07.456Z,101588.17
2017-10-15T05:06:39.541Z,101589.66
2017-10-15T05:09:15.542Z,101588.96
2017-10-15T05:11:48.923Z,101585.80
2017-10-15T05:14:21.432Z,101593.59
2017-10-15T05:16:53.385Z,101592.03
2017-10-15T05:19:25.340Z,101586.13
2017-10-15T05:21:58.187Z,101593.27
2017-10-15T05:24:30.920Z,101591.95
2017-10-15T05:27:04.353Z,101593.05
2017-10-15T05:29:37.716Z,101587.44
2017-10-15T05:32:11.925Z,101590.55
2017-10-15T05:34:49.381Z,101590.50
2017-10-15T05:37:21.526Z,101595.00
2017-10-15T05:39:54.297Z,101596.56
2017-10-15T05:42:28.637Z,101597.38
2017-10-15T05:45:01.325Z,101599.98
2017-10-15T05:47:33.651Z,101598.67
2017-10-15T05:50:08.757Z,101598.75
2017-10-15T05:55:20.217Z,101601.77
2017-10-15T05:57:53.603Z,101596.92
2017-10-15T06:00:30.982Z,101602.45
2017-10-15T06:03:12.256Z,101599.58
2017-10-15T06:05:49.382Z,101605.38
2017-10-15T06:08:26.445Z,101603.29
2017-10-15T06:11:02.347Z,101610.02
2017-10-15T06:13:35.061Z,101608.44
2017-10-15T06:16:08.136Z,101605.39
2017-10-15T06:18:40.053Z,101601.69
2017-10-15T06:21:14.637Z,101603.80
2017-10-15T06:23:49.354Z,101605.20
2017-10-15T06:26:21.939Z,101602.61
2017-10-15T06:28:53.888Z,101612.27
2017-10-15T06:31:26.590Z,101602.98
2017-10-15T06:33:58.548Z,101603.39
2017-10-15T06:36:32.317Z,101606.06
2017-10-15T06:39:08.647Z,101605.15
2017-10-15T06:41:43.865Z,101613.01
2017-10-15T06:44:17.010Z,101614.95
2017-10-15T06:46:53.242Z,101607.05
2017-10-15T06:49:25.777Z,101616.81
2017-10-15T06:51:58.086Z,101618.59
2017-10-15T06:57:36.511Z,101615.12
2017-10-15T07:00:09.062Z,101626.45
2017-10-15T07:02:41.579Z,101625.01
2017-10-15T07:05:14.052Z,101627.86
2017-10-15T07:07:46.281Z,101627.94
2017-10-15T07:10:20.002Z,101630.44
2017-10-15T07:12:53.078Z,101635.60
2017-10-15T07:15:25.390Z,101635.83
2017-10-15T07:17:59.145Z,101632.84
2017-10-15T07:20:31.068Z,101637.33
2017-10-15T07:23:03.880Z,101636.01
2017-10-15T07:25:36.110Z,101642.11
2017-10-15T07:28:08.087Z,101644.65
2017-10-15T07:30:40.382Z,101641.11
2017-10-15T07:36:21.813Z,101650.44
2017-10-15T07:39:02.890Z,101652.59
2017-10-15T07:41:36.779Z,101662.34
2017-10-15T07:44:13.777Z,101659.16
2017-10-15T07:46:50.017Z,101657.99
2017-10-15T07:49:27.925Z,101666.47
2017-10-15T07:55:09.380Z,101663.81
2017-10-15T07:57:40.813Z,101672.87
2017-10-15T08:00:13.923Z,101673.55
2017-10-15T08:02:45.223Z,101671.84
2017-10-15T08:05:18.285Z,101670.31
2017-10-15T08:07:49.750Z,101664.52
2017-10-15T08:10:21.683Z,101680.11
2017-10-15T08:13:03.723Z,101680.85
2017-10-15T08:15:35.219Z,101680.20
2017-10-15T08:18:06.674Z,101685.50
2017-10-15T08:20:38.058Z,101687.38
2017-10-15T08:23:13.745Z,101686.05
2017-10-15T08:25:45.229Z,101680.61
2017-10-15T08:28:18.105Z,101679.03
2017-10-15T08:30:50.797Z,101673.63
2017-10-15T08:33:23.816Z,101677.10
2017-10-15T08:35:56.957Z,101676.48
2017-10-15T08:38:28.590Z,101676.18
2017-10-15T08:41:00.243Z,101679.90
2017-10-15T08:43:32.197Z,101674.83
2017-10-15T08:46:06.741Z,101674.58
2017-10-15T08:48:40.305Z,101671.25
2017-10-15T08:51:15.785Z,101676.31
2017-10-15T08:53:49.009Z,101667.30
2017-10-15T08:56:21.724Z,101670.44
2017-10-15T08:58:53.968Z,101666.10
2017-10-15T09:01:28.382Z,101669.61
2017-10-15T09:04:00.102Z,101659.35
2017-10-15T09:06:32.199Z,101655.08
2017-10-15T09:09:05.630Z,101656.02
2017-10-15T09:11:38.124Z,101649.84
2017-10-15T09:14:11.975Z,101653.11
2017-10-15T09:16:44.620Z,101648.60
2017-10-15T09:19:18.202Z,101649.88
2017-10-15T09:21:54.547Z,101647.41
2017-10-15T09:24:26.811Z,101640.14
2017-10-15T09:26:58.577Z,101634.52
2017-10-15T09:29:31.108Z,101635.77
2017-10-15T09:32:08.480Z,101633.25
2017-10-15T09:34:45.292Z,101627.17
2017-10-15T09:37:26.102Z,101629.59
2017-10-15T09:40:02.459Z,101625.06
2017-10-15T09:42:37.849Z,101617.95
2017-10-15T09:45:14.793Z,101616.37
2017-10-15T09:48:13.107Z,101619.45
2017-10-15T09:50:50.975Z,101611.58
2017-10-15T09:53:26.377Z,101617.02
2017-10-15T09:55:58.632Z,101610.63
2017-10-15T09:58:30.976Z,101616.02
2017-10-15T10:01:03.771Z,101607.98
2017-10-15T10:03:35.720Z,101612.95
2017-10-15T10:06:08.465Z,101612.66
2017-10-15T10:08:40.786Z,101602.16
2017-10-15T10:11:13.123Z,101604.40
2017-10-15T10:13:45.595Z,101597.88
2017-10-15T10:16:18.620Z,101591.81
2017-10-15T10:18:56.382Z,101593.72
2017-10-15T10:24:27.566Z,101588.63
2017-10-15T10:27:01.052Z,101590.20
2017-10-15T10:29:33.222Z,101581.98
2017-10-15T10:32:07.913Z,101582.94
2017-10-15T10:34:41.177Z,101584.70
2017-10-15T10:37:18.575Z,101587.89
2017-10-15T10:39:51.333Z,101570.70
2017-10-15T10:42:24.768Z,101567.25
2017-10-15T10:45:00.636Z,101569.50
2017-10-15T10:47:33.610Z,101562.39
2017-10-15T10:50:08.331Z,101558.23
2017-10-15T10:52:42.221Z,101549.26
2017-10-15T10:55:21.163Z,101543.47
2017-10-15T10:58:27.186Z,101544.33
2017-10-15T11:01:17.676Z,101546.22
2017-10-15T11:04:02.561Z,101544.30
2017-10-15T11:06:35.777Z,101542.90
2017-10-15T11:09:22.849Z,101542.23
2017-10-15T11:12:00.122Z,101540.78
2017-10-15T11:14:39.805Z,101535.09
2017-10-15T11:17:18.107Z,101528.62
2017-10-15T11:19:50.655Z,101537.40
2017-10-15T11:22:24.566Z,101533.43
2017-10-15T11:25:00.328Z,101524.25
2017-10-15T11:27:35.270Z,101524.86
2017-10-15T11:30:13.451Z,101518.66
2017-10-15T12:36:45.076Z,101432.03
2017-10-15T12:39:23.986Z,101427.53
2017-10-15T12:44:47.021Z,101413.40
2017-10-15T12:47:35.924Z,101406.76
2017-10-15T12:50:12.445Z,101405.61
2017-10-15T12:52:45.398Z,101403.78
2017-10-15T12:55:23.016Z,101400.84
2017-10-15T13:00:38.487Z,101397.48
2017-10-15T13:03:12.805Z,101396.30
2017-10-15T13:05:54.872Z,101396.64
2017-10-15T13:08:29.830Z,101388.77
2017-10-15T13:11:03.100Z,101387.09
2017-10-15T13:13:35.211Z,101382.59
2017-10-15T13:16:07.582Z,101381.57
2017-10-15T13:18:39.527Z,101378.31
2017-10-15T13:21:12.392Z,101379.36
2017-10-15T13:23:44.636Z,101374.34
2017-10-15T13:26:16.716Z,101374.06
2017-10-15T13:28:49.200Z,101376.59
2017-10-15T13:31:22.704Z,101371.22
2017-10-15T13:33:54.852Z,101375.76
2017-10-15T13:36:27.776Z,101366.19
2017-10-15T13:38:59.744Z,101361.37
2017-10-15T13:41:31.963Z,101357.08
2017-10-15T13:44:04.952Z,101357.45
2017-10-15T13:46:37.131Z,101349.88
2017-10-15T13:49:09.479Z,101349.98
2017-10-15T13:51:41.655Z,101350.25
2017-10-15T13:54:13.882Z,101355.69
2017-10-15T13:56:46.006Z,101348.02
2017-10-15T13:59:18.332Z,101339.59
2017-10-15T14:01:50.759Z,101333.62
2017-10-15T14:04:24.682Z,101330.83
2017-10-15T14:06:56.671Z,101320.84
2017-10-15T14:09:29.141Z,101327.47
2017-10-15T14:12:01.402Z,101327.69
2017-10-15T14:14:34.347Z,101328.55
2017-10-15T14:17:06.687Z,101327.28
2017-10-15T14:19:38.722Z,101318.59
2017-10-15T14:22:34.081Z,101319.05
2017-10-15T14:25:06.427Z,101319.93
2017-10-15T14:27:39.653Z,101315.12
2017-10-15T14:30:13.092Z,101313.02
2017-10-15T14:32:46.564Z,101308.09
2017-10-15T14:35:18.947Z,101307.80
2017-10-15T14:37:51.065Z,101302.02
2017-10-15T14:40:25.700Z,101297.59
2017-10-15T14:42:58.418Z,101295.47
2017-10-15T14:45:30.658Z,101296.69
2017-10-15T14:48:05.520Z,101291.48
2017-10-15T14:50:39.013Z,101295.72
2017-10-15T14:53:12.223Z,101293.80
2017-10-15T14:55:44.891Z,101289.89
2017-10-15T14:58:17.249Z,101286.81
2017-10-15T15:00:50.509Z,101291.20
2017-10-15T15:03:27.598Z,101297.25
2017-10-15T15:05:59.867Z,101288.86
2017-10-15T15:08:32.814Z,101294.73
2017-10-15T15:11:05.641Z,101292.52
2017-10-15T15:13:37.909Z,101294.96
2017-10-15T15:16:11.253Z,101295.34
2017-10-15T15:18:43.505Z,101290.53
2017-10-15T15:21:15.638Z,101293.97
2017-10-15T15:23:48.008Z,101288.30
2017-10-15T15:26:21.663Z,101279.16
2017-10-15T15:28:54.173Z,101281.44
2017-10-15T15:31:27.702Z,101276.94
2017-10-15T15:33:59.719Z,101278.31
2017-10-15T15:36:32.143Z,101271.33
2017-10-15T15:39:06.960Z,101274.42
2017-10-15T15:41:39.304Z,101274.67
2017-10-15T15:44:11.854Z,101272.38
2017-10-15T15:46:44.575Z,101267.91
2017-10-15T15:49:17.913Z,101268.06
2017-10-15T15:51:50.257Z,101263.66
2017-10-15T15:54:27.438Z,101264.59
2017-10-15T15:56:59.984Z,101270.94
2017-10-15T15:59:32.389Z,101272.39
2017-10-15T16:02:14.887Z,101273.00
2017-10-15T16:04:47.171Z,101275.70
2017-10-15T16:07:19.171Z,101275.16
2017-10-15T16:09:53.011Z,101277.48
2017-10-15T16:12:27.153Z,101277.31
2017-10-15T16:14:59.389Z,101282.77
2017-10-15T16:17:32.024Z,101282.23
2017-10-15T16:23:15.069Z,101284.94
2017-10-15T16:25:47.593Z,101281.13
2017-10-15T16:28:20.578Z,101286.96
2017-10-15T16:30:54.045Z,101286.77
2017-10-15T16:33:28.432Z,101294.27
2017-10-15T16:36:01.183Z,101295.30
2017-10-15T16:38:35.035Z,101298.70
2017-10-15T16:41:10.991Z,101297.15
2017-10-15T16:43:46.809Z,101303.72
2017-10-15T16:49:27.469Z,101296.98
2017-10-15T16:52:06.705Z,101297.87
2017-10-15T16:54:42.720Z,101299.55
2017-10-15T17:03:22.286Z,101300.42
2017-10-15T17:05:57.224Z,101303.31
2017-10-15T17:08:32.665Z,101299.45
2017-10-15T17:11:17.392Z,101297.91
2017-10-15T17:13:50.299Z,101294.59
2017-10-15T17:16:32.370Z,101299.02
2017-10-15T17:19:07.048Z,101303.99
2017-10-15T17:21:41.564Z,101299.77
2017-10-15T17:24:15.718Z,101303.09
2017-10-15T17:26:48.832Z,101309.70
2017-10-15T17:29:20.618Z,101308.33
2017-10-15T17:31:52.103Z,101309.77
2017-10-15T17:34:27.519Z,101307.47
2017-10-15T17:37:11.050Z,101308.34
2017-10-15T17:42:49.192Z,101311.30
2017-10-15T17:45:24.546Z,101314.41
2017-10-15T17:47:56.839Z,101318.34
2017-10-15T17:50:29.744Z,101318.05
2017-10-15T17:53:05.322Z,101315.09
2017-10-15T17:55:42.701Z,101319.05
2017-10-15T17:58:24.052Z,101314.16
2017-10-15T18:04:02.235Z,101315.22
2017-10-15T18:06:35.271Z,101321.32
2017-10-15T18:09:09.546Z,101326.57
2017-10-15T18:11:41.632Z,101316.67
2017-10-15T18:14:13.767Z,101320.07
2017-10-15T18:16:46.559Z,101329.06
2017-10-15T18:19:18.581Z,101329.17
2017-10-15T18:21:55.627Z,101322.47
2017-10-15T18:24:36.428Z,101325.08
2017-10-15T18:27:10.321Z,101322.75
2017-10-15T18:29:43.354Z,101321.87
2017-10-15T18:32:16.147Z,101320.02
2017-10-15T18:34:48.491Z,101323.11
2017-10-15T18:37:22.281Z,101323.09
2017-10-15T18:43:08.477Z,101333.84
2017-10-15T18:45:56.876Z,101325.75
2017-10-15T18:51:25.856Z,101333.19
2017-10-15T18:53:58.942Z,101338.75
2017-10-15T18:56:38.943Z,101342.95
2017-10-15T19:05:13.796Z,101348.94
2017-10-15T19:07:51.478Z,101347.93
2017-10-15T19:13:19.858Z,101343.48
2017-10-15T19:15:52.807Z,101347.32
2017-10-15T19:18:30.863Z,101347.64
2017-10-15T19:21:05.360Z,101351.99
2017-10-15T19:23:41.773Z,101348.91
2017-10-15T19:26:18.397Z,101345.00
2017-10-15T19:28:49.732Z,101352.95
2017-10-15T19:31:26.241Z,101349.39
2017-10-15T19:37:11.252Z,101360.34
2017-10-15T19:40:03.358Z,101356.66
2017-10-15T19:42:36.814Z,101350.64
2017-10-15T19:45:12.711Z,101354.47
2017-10-15T19:47:44.354Z,101352.98
2017-10-15T19:50:16.622Z,101355.48
2017-10-15T19:52:56.691Z,101359.69
2017-10-15T19:55:32.104Z,101360.66
2017-10-15T19:58:10.696Z,101366.36
2017-10-15T20:00:44.198Z,101369.86
2017-10-15T20:03:16.031Z,101373.72
2017-10-15T20:05:47.857Z,101374.45
2017-10-15T20:08:19.463Z,101379.83
2017-10-15T20:10:50.839Z,101391.94
2017-10-15T20:13:22.901Z,101388.10
2017-10-15T20:15:55.526Z,101390.02
2017-10-15T20:18:30.525Z,101383.98
2017-10-15T20:21:07.267Z,101386.16
2017-10-15T20:23:42.617Z,101390.16
2017-10-15T20:26:16.756Z,101391.38
2017-10-15T20:28:59.635Z,101395.27
2017-10-15T21:12:40.484Z,101405.42
2017-10-15T21:15:14.860Z,101406.89
2017-10-15T21:17:47.811Z,101408.31
2017-10-15T21:20:20.003Z,101417.13
2017-10-15T21:22:52.073Z,101417.70
2017-10-15T21:25:26.546Z,101421.16
2017-10-15T21:27:58.885Z,101423.63
2017-10-15T21:33:14.049Z,101429.59
2017-10-15T21:35:46.730Z,101433.81
2017-10-15T21:38:19.358Z,101432.09
2017-10-15T21:40:53.086Z,101433.94
2017-10-15T21:43:28.760Z,101437.72
2017-10-15T21:46:02.564Z,101440.34
2017-10-15T21:48:35.469Z,101442.92
2017-10-15T21:51:10.494Z,101440.41
2017-10-15T21:53:42.933Z,101441.30
2017-10-15T22:02:00.921Z,101442.72
2017-10-15T22:04:33.285Z,101450.17
2017-10-15T22:07:06.327Z,101451.59
2017-10-15T22:09:38.261Z,101442.22
2017-10-15T22:12:10.345Z,101445.89
2017-10-15T22:14:42.383Z,101443.93
2017-10-15T22:17:14.402Z,101444.16
2017-10-15T22:19:46.353Z,101446.38
2017-10-15T22:22:25.802Z,101442.83
2017-10-15T22:24:58.182Z,101442.09
2017-10-15T22:27:30.516Z,101445.77
2017-10-15T22:30:04.651Z,101445.09
2017-10-15T22:32:37.107Z,101438.94
2017-10-15T22:35:13.077Z,101435.80
2017-10-15T22:37:46.257Z,101434.66
2017-10-15T22:43:23.825Z,101439.50
2017-10-15T22:45:56.027Z,101434.77
2017-10-15T22:48:36.641Z,101442.70
2017-10-15T22:51:09.824Z,101438.13
2017-10-15T22:53:41.854Z,101438.38
2017-10-15T22:56:13.539Z,101434.44
2017-10-15T22:58:47.122Z,101438.08
2017-10-15T23:22:24.098Z,101443.36
2017-10-15T23:24:55.321Z,101445.62
2017-10-15T23:27:28.187Z,101446.40
2017-10-15T23:29:59.459Z,101453.23
2017-10-15T23:32:31.488Z,101457.98
2017-10-15T23:35:05.285Z,101462.33
2017-10-15T23:37:37.120Z,101459.25
2017-10-15T23:40:12.841Z,101462.02
2017-10-15T23:42:45.263Z,101455.50
2017-10-15T23:45:17.737Z,101464.14
2017-10-15T23:47:53.865Z,101467.13
2017-10-15T23:50:26.524Z,101470.97
2017-10-15T23:52:58.398Z,101467.88
2017-10-15T23:57:58.078Z,101467.91
